createdAt,value
2024-01-24T00:01:36.560Z,100.00
2024-01-24T00:04:03.354Z,100.00
2024-01-24T00:06:29.988Z,100.00
2024-01-24T00:08:56.530Z,100.00
2024-01-24T00:11:23.079Z,100.00
2024-01-24T00:13:50.817Z,100.00
2024-01-24T00:16:17.426Z,100.00
2024-01-24T00:18:43.964Z,100.00
2024-01-24T00:21:10.486Z,100.00
2024-01-24T00:23:36.989Z,100.00
2024-01-24T00:26:03.500Z,100.00
2024-01-24T00:28:30.892Z,100.00
2024-01-24T00:30:57.738Z,100.00
2024-01-24T00:33:27.008Z,100.00
2024-01-24T00:35:53.514Z,100.00
2024-01-24T00:38:20.165Z,100.00
2024-01-24T00:40:46.689Z,100.00
2024-01-24T00:43:13.264Z,100.00
2024-01-24T00:45:39.838Z,100.00
2024-01-24T00:48:07.789Z,100.00
2024-01-24T00:50:35.822Z,100.00
2024-01-24T00:53:05.746Z,100.00
2024-01-24T00:55:32.238Z,100.00
2024-01-24T00:57:59.543Z,100.00
2024-01-24T01:00:26.229Z,100.00
2024-01-24T01:02:52.878Z,100.00
2024-01-24T01:05:19.710Z,100.00
2024-01-24T01:07:46.755Z,100.00
2024-01-24T01:10:13.291Z,100.00
2024-01-24T01:12:39.866Z,100.00
2024-01-24T01:15:06.955Z,100.00
2024-01-24T01:17:33.469Z,100.00
2024-01-24T01:19:59.971Z,100.00
2024-01-24T01:22:26.641Z,100.00
2024-01-24T01:24:53.304Z,100.00
2024-01-24T01:27:19.847Z,100.00
2024-01-24T01:29:46.400Z,100.00
2024-01-24T01:32:12.986Z,100.00
2024-01-24T01:34:39.501Z,100.00
2024-01-24T01:37:06.209Z,100.00
2024-01-24T01:39:32.783Z,100.00
2024-01-24T01:41:59.277Z,100.00
2024-01-24T01:44:25.869Z,100.00
2024-01-24T01:46:52.626Z,100.00
2024-01-24T01:49:19.982Z,100.00
2024-01-24T01:51:46.931Z,100.00
2024-01-24T01:54:16.011Z,100.00
2024-01-24T01:56:42.951Z,100.00
2024-01-24T01:59:10.258Z,100.00
2024-01-24T02:01:37.151Z,100.00
2024-01-24T02:04:04.289Z,100.00
2024-01-24T02:06:31.010Z,100.00
2024-01-24T02:08:57.813Z,100.00
2024-01-24T02:11:24.763Z,100.00
2024-01-24T02:13:58.320Z,100.00
2024-01-24T02:16:24.822Z,100.00
2024-01-24T02:18:51.555Z,100.00
2024-01-24T02:21:18.182Z,100.00
2024-01-24T02:23:46.260Z,100.00
2024-01-24T02:26:12.838Z,100.00
2024-01-24T02:28:39.438Z,100.00
2024-01-24T02:31:05.892Z,100.00
2024-01-24T02:33:32.523Z,100.00
2024-01-24T02:35:59.068Z,100.00
2024-01-24T02:38:25.680Z,100.00
2024-01-24T02:40:52.269Z,100.00
2024-01-24T02:43:18.878Z,100.00
2024-01-24T02:45:45.443Z,100.00
2024-01-24T02:48:12.106Z,100.00
2024-01-24T02:50:38.667Z,100.00
2024-01-24T02:53:05.182Z,100.00
2024-01-24T02:55:31.665Z,100.00
2024-01-24T02:57:58.271Z,100.00
2024-01-24T03:00:24.852Z,100.00
2024-01-24T03:02:51.309Z,100.00
2024-01-24T03:05:17.934Z,100.00
2024-01-24T03:07:44.460Z,100.00
2024-01-24T03:10:11.054Z,100.00
2024-01-24T03:12:38.782Z,100.00
2024-01-24T03:15:06.685Z,100.00
2024-01-24T03:17:33.620Z,100.00
2024-01-24T03:20:00.313Z,100.00
2024-01-24T03:22:26.952Z,100.00
2024-01-24T03:24:53.870Z,100.00
2024-01-24T03:27:20.614Z,100.00
2024-01-24T03:29:47.180Z,100.00
2024-01-24T03:32:13.651Z,100.00
2024-01-24T03:34:40.110Z,100.00
2024-01-24T03:37:06.775Z,100.00
2024-01-24T03:39:33.390Z,100.00
2024-01-24T03:41:59.876Z,100.00
2024-01-24T03:44:26.462Z,100.00
2024-01-24T03:46:53.713Z,100.00
2024-01-24T03:49:22.891Z,100.00
2024-01-24T03:51:49.595Z,100.00
2024-01-24T03:54:16.518Z,100.00
2024-01-24T03:56:43.131Z,100.00
2024-01-24T03:59:09.719Z,100.00
2024-01-24T04:01:36.397Z,100.00
2024-01-24T04:04:03.081Z,100.00
2024-01-24T04:06:29.766Z,100.00
2024-01-24T04:08:56.332Z,100.00
2024-01-24T04:11:22.852Z,100.00
2024-01-24T04:13:54.491Z,100.00
2024-01-24T04:16:21.158Z,100.00
2024-01-24T04:18:47.950Z,100.00
2024-01-24T04:21:14.504Z,100.00
2024-01-24T04:23:40.953Z,100.00
2024-01-24T04:26:08.220Z,100.00
2024-01-24T04:28:34.757Z,100.00
2024-01-24T04:31:01.365Z,100.00
2024-01-24T04:33:29.024Z,100.00
2024-01-24T04:35:58.273Z,100.00
2024-01-24T04:38:25.428Z,100.00
2024-01-24T04:40:52.662Z,100.00
2024-01-24T04:43:20.970Z,100.00
2024-01-24T04:45:47.584Z,100.00
2024-01-24T04:48:14.229Z,100.00
2024-01-24T04:50:40.949Z,100.00
2024-01-24T04:53:07.486Z,100.00
2024-01-24T04:55:34.064Z,100.00
2024-01-24T04:58:00.779Z,100.00
2024-01-24T05:00:27.517Z,100.00
2024-01-24T05:02:54.150Z,100.00
2024-01-24T05:05:20.680Z,100.00
2024-01-24T05:07:47.236Z,100.00
2024-01-24T05:10:13.797Z,100.00
2024-01-24T05:12:40.390Z,100.00
2024-01-24T05:15:09.512Z,100.00
2024-01-24T05:17:38.733Z,100.00
2024-01-24T05:20:07.397Z,100.00
2024-01-24T05:22:33.999Z,100.00
2024-01-24T05:25:00.619Z,100.00
2024-01-24T05:27:27.166Z,100.00
2024-01-24T05:29:53.736Z,100.00
2024-01-24T05:32:20.299Z,100.00
2024-01-24T05:34:47.101Z,100.00
2024-01-24T05:37:13.943Z,100.00
2024-01-24T05:39:43.018Z,100.00
2024-01-24T05:42:09.919Z,100.00
2024-01-24T05:44:36.421Z,100.00
2024-01-24T05:47:02.916Z,100.00
2024-01-24T05:49:29.485Z,100.00
2024-01-24T05:51:56.355Z,100.00
2024-01-24T05:54:23.057Z,100.00
2024-01-24T05:56:50.623Z,100.00
2024-01-24T05:59:17.134Z,100.00
2024-01-24T06:01:44.622Z,100.00
2024-01-24T06:04:11.566Z,100.00
2024-01-24T06:06:38.303Z,100.00
2024-01-24T06:09:05.028Z,100.00
2024-01-24T06:11:31.590Z,100.00
2024-01-24T06:13:58.145Z,100.00
2024-01-24T06:16:24.754Z,100.00
2024-01-24T06:18:51.347Z,100.00
2024-01-24T06:21:17.935Z,100.00
2024-01-24T06:23:44.494Z,100.00
2024-01-24T06:26:10.979Z,100.00
2024-01-24T06:28:38.148Z,100.00
2024-01-24T06:31:04.853Z,100.00
2024-01-24T06:33:31.554Z,100.00
2024-01-24T06:35:59.027Z,100.00
2024-01-24T06:38:25.612Z,100.00
2024-01-24T06:40:52.183Z,100.00
2024-01-24T06:43:19.967Z,100.00
2024-01-24T06:45:46.633Z,100.00
2024-01-24T06:48:13.277Z,100.00
2024-01-24T06:50:40.061Z,100.00
2024-01-24T06:53:11.016Z,100.00
2024-01-24T06:55:38.137Z,100.00
2024-01-24T06:58:07.112Z,100.00
2024-01-24T07:00:34.802Z,100.00
2024-01-24T07:03:01.771Z,100.00
2024-01-24T07:05:28.618Z,100.00
2024-01-24T07:07:55.112Z,100.00
2024-01-24T07:10:23.115Z,100.00
2024-01-24T07:12:49.769Z,100.00
2024-01-24T07:15:20.156Z,100.00
2024-01-24T07:17:47.460Z,100.00
2024-01-24T07:20:14.729Z,100.00
2024-01-24T07:22:41.234Z,100.00
2024-01-24T07:25:08.630Z,100.00
2024-01-24T07:27:36.725Z,100.00
2024-01-24T07:30:06.991Z,100.00
2024-01-24T07:32:33.667Z,100.00
2024-01-24T07:35:00.762Z,100.00
2024-01-24T07:37:27.498Z,100.00
2024-01-24T07:39:55.911Z,100.00
2024-01-24T07:42:22.467Z,100.00
2024-01-24T07:44:49.168Z,100.00
2024-01-24T07:47:16.515Z,100.00
2024-01-24T07:49:43.200Z,100.00
2024-01-24T07:52:09.893Z,100.00
2024-01-24T07:54:36.600Z,100.00
2024-01-24T07:57:04.854Z,100.00
2024-01-24T07:59:32.143Z,100.00
2024-01-24T08:04:25.997Z,100.00
2024-01-24T08:06:52.688Z,100.00
2024-01-24T08:09:19.576Z,100.00
2024-01-24T08:11:46.311Z,100.00
2024-01-24T08:14:13.679Z,100.00
2024-01-24T08:16:40.285Z,100.00
2024-01-24T08:19:06.914Z,100.00
2024-01-24T08:21:33.567Z,100.00
2024-01-24T08:24:00.263Z,100.00
2024-01-24T08:26:26.921Z,100.00
2024-01-24T08:28:53.889Z,100.00
2024-01-24T08:31:20.766Z,100.00
2024-01-24T08:33:50.306Z,100.00
2024-01-24T08:36:18.743Z,100.00
2024-01-24T08:38:45.259Z,100.00
2024-01-24T08:41:11.805Z,100.00
2024-01-24T08:43:38.296Z,100.00
2024-01-24T08:46:04.878Z,100.00
2024-01-24T08:48:31.581Z,100.00
2024-01-24T08:50:58.146Z,100.00
2024-01-24T08:53:24.624Z,100.00
2024-01-24T08:55:51.418Z,100.00
2024-01-24T08:58:18.092Z,100.00
2024-01-24T09:00:46.399Z,100.00
2024-01-24T09:03:13.446Z,100.00
2024-01-24T09:05:40.145Z,100.00
2024-01-24T09:08:06.915Z,100.00
2024-01-24T09:10:33.646Z,100.00
2024-01-24T09:13:00.485Z,100.00
2024-01-24T09:15:27.212Z,100.00
2024-01-24T09:17:53.913Z,100.00
2024-01-24T09:20:20.723Z,100.00
2024-01-24T09:22:48.028Z,100.00
2024-01-24T09:25:15.719Z,100.00
2024-01-24T09:27:42.753Z,100.00
2024-01-24T09:30:09.693Z,100.00
2024-01-24T09:32:36.467Z,100.00
2024-01-24T09:35:03.486Z,100.00
2024-01-24T09:37:30.137Z,100.00
2024-01-24T09:39:57.482Z,100.00
2024-01-24T09:42:27.004Z,100.00
2024-01-24T09:44:58.388Z,100.00
2024-01-24T09:47:25.843Z,100.00
2024-01-24T09:49:52.747Z,100.00
2024-01-24T09:52:25.395Z,99.67
2024-01-24T09:55:00.377Z,100.00
2024-01-24T09:57:28.120Z,99.44
2024-01-24T09:59:55.639Z,98.69
2024-01-24T10:02:22.849Z,98.35
2024-01-24T10:04:52.846Z,98.55
2024-01-24T10:07:21.015Z,97.87
2024-01-24T10:09:48.670Z,97.74
2024-01-24T10:12:15.352Z,97.26
2024-01-24T10:14:42.265Z,97.29
2024-01-24T10:17:13.127Z,97.15
2024-01-24T10:19:40.383Z,96.59
2024-01-24T10:22:10.457Z,95.47
2024-01-24T10:24:37.939Z,96.40
2024-01-24T10:27:05.596Z,96.35
2024-01-24T10:29:32.491Z,96.29
2024-01-24T10:32:00.258Z,94.96
2024-01-24T10:34:30.872Z,96.61
2024-01-24T10:36:57.505Z,95.36
2024-01-24T10:39:26.559Z,93.94
2024-01-24T10:41:55.653Z,94.43
2024-01-24T10:44:25.847Z,93.78
2024-01-24T10:46:52.905Z,93.67
2024-01-24T10:49:20.417Z,94.03
2024-01-24T10:51:47.946Z,94.09
2024-01-24T10:54:17.039Z,95.15
2024-01-24T10:56:51.112Z,94.91
2024-01-24T10:59:19.071Z,94.44
2024-01-24T11:01:46.369Z,94.72
2024-01-24T11:04:16.666Z,94.25
2024-01-24T11:06:49.695Z,92.89
2024-01-24T11:09:27.935Z,94.27
2024-01-24T11:11:57.781Z,94.59
2024-01-24T11:14:33.245Z,94.53
2024-01-24T11:17:00.884Z,94.01
2024-01-24T11:19:29.395Z,93.52
2024-01-24T11:22:10.520Z,94.27
2024-01-24T11:24:46.075Z,94.56
2024-01-24T11:27:39.532Z,94.64
2024-01-24T11:30:07.371Z,94.91
2024-01-24T11:32:46.312Z,96.27
2024-01-24T11:35:37.086Z,95.18
2024-01-24T11:38:26.880Z,95.37
2024-01-24T11:41:11.444Z,94.15
2024-01-24T11:43:40.175Z,93.17
2024-01-24T11:46:09.657Z,92.95
2024-01-24T11:48:38.277Z,93.35
2024-01-24T11:51:07.131Z,93.77
2024-01-24T11:53:33.999Z,92.52
2024-01-24T11:56:03.195Z,92.88
2024-01-24T11:58:30.902Z,93.31
2024-01-24T12:01:01.904Z,93.39
2024-01-24T12:03:28.677Z,92.41
2024-01-24T12:05:56.338Z,93.33
2024-01-24T12:08:23.172Z,91.45
2024-01-24T12:10:52.410Z,91.09
2024-01-24T12:13:21.441Z,90.86
2024-01-24T12:15:48.592Z,90.20
2024-01-24T12:18:17.969Z,90.34
2024-01-24T12:20:50.652Z,90.40
2024-01-24T12:23:17.958Z,89.01
2024-01-24T12:25:45.362Z,89.79
2024-01-24T12:28:13.180Z,89.56
2024-01-24T12:30:44.742Z,89.72
2024-01-24T12:33:11.965Z,89.91
2024-01-24T12:35:38.691Z,90.64
2024-01-24T12:38:05.727Z,89.66
2024-01-24T12:40:33.111Z,90.27
2024-01-24T12:43:00.905Z,89.95
2024-01-24T12:45:28.474Z,90.65
2024-01-24T12:47:55.966Z,89.26
2024-01-24T12:50:23.807Z,89.92
2024-01-24T12:52:50.813Z,89.65
2024-01-24T12:55:18.015Z,89.79
2024-01-24T12:57:45.635Z,90.18
2024-01-24T13:00:13.352Z,90.29
2024-01-24T13:02:41.020Z,90.84
2024-01-24T13:05:10.177Z,91.60
2024-01-24T13:07:37.997Z,91.80
2024-01-24T13:10:07.377Z,91.83
2024-01-24T13:12:34.872Z,91.88
2024-01-24T13:15:01.741Z,91.62
2024-01-24T13:17:28.242Z,91.92
2024-01-24T13:19:54.911Z,92.37
2024-01-24T13:22:21.544Z,91.79
2024-01-24T13:24:48.636Z,91.94
2024-01-24T13:27:20.344Z,92.07
2024-01-24T13:29:46.980Z,92.49
2024-01-24T13:32:13.532Z,93.67
2024-01-24T13:34:40.150Z,92.04
2024-01-24T13:37:07.261Z,91.83
2024-01-24T13:39:34.530Z,92.30
2024-01-24T13:42:01.932Z,92.56
2024-01-24T13:44:28.556Z,92.62
2024-01-24T13:46:55.235Z,93.44
2024-01-24T13:49:22.028Z,93.26
2024-01-24T13:51:48.680Z,93.42
2024-01-24T13:54:15.563Z,93.54
2024-01-24T13:56:42.269Z,92.92
2024-01-24T13:59:10.746Z,94.02
2024-01-24T14:01:42.858Z,93.78
2024-01-24T14:04:12.774Z,94.14
2024-01-24T14:06:39.594Z,93.95
2024-01-24T14:09:06.232Z,93.54
2024-01-24T14:11:33.847Z,94.87
2024-01-24T14:14:00.520Z,94.08
2024-01-24T14:16:27.203Z,94.82
2024-01-24T14:18:53.817Z,94.62
2024-01-24T14:21:20.507Z,95.09
2024-01-24T14:23:47.072Z,95.88
2024-01-24T14:26:14.181Z,95.82
2024-01-24T14:28:41.392Z,95.65
2024-01-24T14:31:08.012Z,96.36
2024-01-24T14:33:35.478Z,96.85
2024-01-24T14:36:03.002Z,96.86
2024-01-24T14:38:29.624Z,96.83
2024-01-24T14:40:56.929Z,96.88
2024-01-24T14:43:23.649Z,97.18
2024-01-24T14:45:50.229Z,97.78
2024-01-24T14:48:17.536Z,97.81
2024-01-24T14:50:44.332Z,98.46
2024-01-24T14:53:10.901Z,97.77
2024-01-24T14:55:37.558Z,98.56
2024-01-24T14:58:04.347Z,98.28
2024-01-24T15:00:31.236Z,98.42
2024-01-24T15:02:58.677Z,98.34
2024-01-24T15:05:28.232Z,98.68
2024-01-24T15:07:55.053Z,98.41
2024-01-24T15:10:23.425Z,98.50
2024-01-24T15:12:50.120Z,98.20
2024-01-24T15:15:16.950Z,98.50
2024-01-24T15:17:43.673Z,99.18
2024-01-24T15:20:10.760Z,99.42
2024-01-24T15:22:39.697Z,99.10
2024-01-24T15:25:08.647Z,98.84
2024-01-24T15:27:36.044Z,99.28
2024-01-24T15:30:02.669Z,99.06
2024-01-24T15:32:31.080Z,100.00
2024-01-24T15:34:58.012Z,99.75
2024-01-24T15:37:24.748Z,99.99
2024-01-24T15:39:51.407Z,100.00
2024-01-24T15:42:19.908Z,100.00
2024-01-24T15:44:47.725Z,100.00
2024-01-24T15:47:17.800Z,100.00
2024-01-24T15:49:44.860Z,100.00
2024-01-24T15:52:14.660Z,100.00
2024-01-24T15:54:42.499Z,100.00
2024-01-24T15:57:09.083Z,100.00
2024-01-24T15:59:36.284Z,100.00
2024-01-24T16:02:02.953Z,100.00
2024-01-24T16:04:30.843Z,100.00
2024-01-24T16:07:01.304Z,100.00
2024-01-24T16:09:28.052Z,100.00
2024-01-24T16:11:54.929Z,100.00
2024-01-24T16:14:28.506Z,100.00
2024-01-24T16:16:56.835Z,100.00
2024-01-24T16:19:24.393Z,100.00
2024-01-24T16:21:53.315Z,100.00
2024-01-24T16:24:20.186Z,100.00
2024-01-24T16:26:47.097Z,100.00
2024-01-24T16:29:15.312Z,100.00
2024-01-24T16:31:42.083Z,100.00
2024-01-24T16:34:08.760Z,100.00
2024-01-24T16:36:36.053Z,100.00
2024-01-24T16:39:02.826Z,100.00
2024-01-24T16:41:29.340Z,100.00
2024-01-24T16:43:55.996Z,100.00
2024-01-24T16:46:22.460Z,100.00
2024-01-24T16:48:49.174Z,100.00
2024-01-24T16:51:17.043Z,100.00
2024-01-24T16:53:43.595Z,100.00
2024-01-24T16:56:10.117Z,100.00
2024-01-24T16:58:36.653Z,100.00
2024-01-24T17:01:04.640Z,100.00
2024-01-24T17:03:31.545Z,100.00
2024-01-24T17:05:58.367Z,100.00
2024-01-24T17:08:24.969Z,100.00
2024-01-24T17:10:51.531Z,100.00
2024-01-24T17:13:18.584Z,100.00
2024-01-24T17:15:45.949Z,100.00
2024-01-24T17:18:12.979Z,100.00
2024-01-24T17:20:40.045Z,100.00
2024-01-24T17:23:06.619Z,100.00
2024-01-24T17:25:33.200Z,100.00
2024-01-24T17:27:59.828Z,100.00
2024-01-24T17:30:26.530Z,100.00
2024-01-24T17:32:53.228Z,100.00
2024-01-24T17:35:19.798Z,100.00
2024-01-24T17:37:46.515Z,100.00
2024-01-24T17:40:13.455Z,100.00
2024-01-24T17:42:40.665Z,100.00
2024-01-24T17:45:07.917Z,100.00
2024-01-24T17:47:35.650Z,100.00
2024-01-24T17:50:03.550Z,100.00
2024-01-24T17:52:30.367Z,100.00
2024-01-24T17:55:02.629Z,100.00
2024-01-24T17:57:29.473Z,100.00
2024-01-24T17:59:56.360Z,100.00
2024-01-24T18:02:23.114Z,100.00
2024-01-24T18:04:50.082Z,100.00
2024-01-24T18:07:17.288Z,100.00
2024-01-24T18:09:44.492Z,100.00
2024-01-24T18:12:11.335Z,100.00
2024-01-24T18:14:38.441Z,100.00
2024-01-24T18:17:05.294Z,100.00
2024-01-24T18:19:33.260Z,100.00
2024-01-24T18:22:01.064Z,100.00
2024-01-24T18:24:27.787Z,100.00
2024-01-24T18:26:54.361Z,100.00
2024-01-24T18:29:20.930Z,100.00
2024-01-24T18:31:48.442Z,100.00
2024-01-24T18:34:15.734Z,100.00
2024-01-24T18:36:42.436Z,100.00
2024-01-24T18:39:09.057Z,100.00
2024-01-24T18:41:36.077Z,100.00
2024-01-24T18:44:02.606Z,100.00
2024-01-24T18:46:29.616Z,100.00
2024-01-24T18:48:57.303Z,100.00
2024-01-24T18:51:25.339Z,100.00
2024-01-24T18:53:51.919Z,100.00
2024-01-24T18:56:19.811Z,100.00
2024-01-24T18:58:46.937Z,100.00
2024-01-24T19:01:14.145Z,100.00
2024-01-24T19:03:41.699Z,100.00
2024-01-24T19:06:08.701Z,100.00
2024-01-24T19:08:37.527Z,100.00
2024-01-24T19:11:04.962Z,100.00
2024-01-24T19:13:32.151Z,100.00
2024-01-24T19:15:59.488Z,100.00
2024-01-24T19:18:27.726Z,100.00
2024-01-24T19:20:54.973Z,100.00
2024-01-24T19:23:21.529Z,100.00
2024-01-24T19:25:48.161Z,100.00
2024-01-24T19:28:14.845Z,100.00
2024-01-24T19:30:41.502Z,100.00
2024-01-24T19:33:08.212Z,100.00
2024-01-24T19:35:35.138Z,100.00
2024-01-24T19:38:01.935Z,100.00
2024-01-24T19:40:28.415Z,100.00
2024-01-24T19:42:55.960Z,100.00
2024-01-24T19:45:22.604Z,100.00
2024-01-24T19:47:49.374Z,100.00
2024-01-24T19:50:17.090Z,100.00
2024-01-24T19:52:43.694Z,100.00
2024-01-24T19:55:10.407Z,100.00
2024-01-24T19:57:37.638Z,100.00
2024-01-24T20:00:04.903Z,100.00
2024-01-24T20:02:32.696Z,100.00
2024-01-24T20:04:59.384Z,100.00
2024-01-24T20:07:25.955Z,100.00
2024-01-24T20:09:54.648Z,100.00
2024-01-24T20:12:22.927Z,100.00
2024-01-24T20:14:52.671Z,100.00
2024-01-24T20:17:21.729Z,100.00
2024-01-24T20:19:50.076Z,100.00
2024-01-24T20:22:16.970Z,100.00
2024-01-24T20:24:43.652Z,100.00
2024-01-24T20:27:10.645Z,100.00
2024-01-24T20:29:37.171Z,100.00
2024-01-24T20:32:04.622Z,100.00
2024-01-24T20:34:31.624Z,100.00
2024-01-24T20:36:59.014Z,100.00
2024-01-24T20:39:26.536Z,100.00
2024-01-24T20:41:53.155Z,100.00
2024-01-24T20:44:20.372Z,100.00
2024-01-24T20:46:46.978Z,100.00
2024-01-24T20:49:13.665Z,100.00
2024-01-24T20:51:40.866Z,100.00
2024-01-24T20:54:09.558Z,100.00
2024-01-24T20:56:36.293Z,100.00
2024-01-24T20:59:02.837Z,100.00
2024-01-24T21:01:29.630Z,100.00
2024-01-24T21:03:56.832Z,100.00
2024-01-24T21:06:26.426Z,100.00
2024-01-24T21:08:54.331Z,100.00
2024-01-24T21:11:21.938Z,100.00
2024-01-24T21:13:48.592Z,100.00
2024-01-24T21:16:15.681Z,100.00
2024-01-24T21:18:43.435Z,100.00
2024-01-24T21:21:11.568Z,100.00
2024-01-24T21:23:38.153Z,100.00
2024-01-24T21:26:04.777Z,100.00
2024-01-24T21:28:31.324Z,100.00
2024-01-24T21:30:57.922Z,100.00
2024-01-24T21:33:24.598Z,100.00
2024-01-24T21:35:51.275Z,100.00
2024-01-24T21:38:18.509Z,100.00
2024-01-24T21:40:45.132Z,100.00
2024-01-24T21:43:11.641Z,100.00
2024-01-24T21:45:38.185Z,100.00
2024-01-24T21:48:06.197Z,100.00
2024-01-24T21:50:32.751Z,100.00
2024-01-24T21:52:59.242Z,100.00
2024-01-24T21:55:25.710Z,100.00
2024-01-24T21:57:53.448Z,100.00
2024-01-24T22:00:20.644Z,100.00
2024-01-24T22:02:47.336Z,100.00
2024-01-24T22:05:13.891Z,100.00
2024-01-24T22:07:42.084Z,100.00
2024-01-24T22:10:09.126Z,100.00
2024-01-24T22:12:37.673Z,100.00
2024-01-24T22:15:09.313Z,100.00
2024-01-24T22:17:35.980Z,100.00
2024-01-24T22:20:03.348Z,100.00
2024-01-24T22:22:29.822Z,100.00
2024-01-24T22:24:56.337Z,100.00
2024-01-24T22:27:22.911Z,100.00
2024-01-24T22:29:49.434Z,100.00
2024-01-24T22:32:16.512Z,100.00
2024-01-24T22:34:43.312Z,100.00
2024-01-24T22:37:10.498Z,100.00
2024-01-24T22:39:37.126Z,100.00
2024-01-24T22:42:03.832Z,100.00
2024-01-24T22:44:30.383Z,100.00
2024-01-24T22:46:56.876Z,100.00
2024-01-24T22:49:23.708Z,100.00
2024-01-24T22:51:50.275Z,100.00
2024-01-24T22:54:17.231Z,100.00
2024-01-24T22:56:43.754Z,100.00
2024-01-24T22:59:10.398Z,100.00
2024-01-24T23:01:37.044Z,100.00
2024-01-24T23:04:03.887Z,100.00
2024-01-24T23:06:30.597Z,100.00
2024-01-24T23:08:57.181Z,100.00
2024-01-24T23:11:23.715Z,100.00
2024-01-24T23:13:50.290Z,100.00
2024-01-24T23:16:17.321Z,100.00
2024-01-24T23:18:44.048Z,100.00
2024-01-24T23:21:10.782Z,100.00
2024-01-24T23:23:37.542Z,100.00
2024-01-24T23:26:04.231Z,100.00
2024-01-24T23:28:30.883Z,100.00
2024-01-24T23:30:57.641Z,100.00
2024-01-24T23:33:25.727Z,100.00
2024-01-24T23:35:52.329Z,100.00
2024-01-24T23:38:18.829Z,100.00
2024-01-24T23:40:45.376Z,100.00
2024-01-24T23:43:12.013Z,100.00
2024-01-24T23:45:38.575Z,100.00
2024-01-24T23:48:05.492Z,100.00
2024-01-24T23:50:32.402Z,100.00
2024-01-24T23:53:00.367Z,100.00
2024-01-24T23:55:27.406Z,100.00
2024-01-24T23:57:55.005Z,100.00
